sensor_id;sensor_type;location;lat;lon;timestamp;temperature;humidity
5870;DHT22;2961;47.702;9.410;2023-10-09T00:01:02;9.20;99.90
5870;DHT22;2961;47.702;9.410;2023-10-09T00:03:39;9.20;99.90
5870;DHT22;2961;47.702;9.410;2023-10-09T00:06:06;9.20;99.90
5870;DHT22;2961;47.702;9.410;2023-10-09T00:08:35;9.20;99.90
5870;DHT22;2961;47.702;9.410;2023-10-09T00:11:05;9.20;99.90
5870;DHT22;2961;47.702;9.410;2023-10-09T00:13:43;9.20;99.90
5870;DHT22;2961;47.702;9.410;2023-10-09T00:16:18;9.20;99.90
5870;DHT22;2961;47.702;9.410;2023-10-09T00:18:50;9.20;99.90
5870;DHT22;2961;47.702;9.410;2023-10-09T00:21:20;9.20;99.90
5870;DHT22;2961;47.702;9.410;2023-10-09T00:23:49;9.10;99.90
5870;DHT22;2961;47.702;9.410;2023-10-09T00:26:22;9.10;99.90
5870;DHT22;2961;47.702;9.410;2023-10-09T00:28:50;9.10;99.90
5870;DHT22;2961;47.702;9.410;2023-10-09T00:31:18;9.10;99.90
5870;DHT22;2961;47.702;9.410;2023-10-09T00:33:53;9.10;99.90
5870;DHT22;2961;47.702;9.410;2023-10-09T00:36:21;9.10;99.90
5870;DHT22;2961;47.702;9.410;2023-10-09T00:38:54;9.10;99.90
5870;DHT22;2961;47.702;9.410;2023-10-09T00:41:22;9.10;99.90
5870;DHT22;2961;47.702;9.410;2023-10-09T00:43:50;9.00;99.90
5870;DHT22;2961;47.702;9.410;2023-10-09T00:46:20;9.00;99.90
5870;DHT22;2961;47.702;9.410;2023-10-09T00:48:54;8.90;99.90
5870;DHT22;2961;47.702;9.410;2023-10-09T00:51:23;8.90;99.90
5870;DHT22;2961;47.702;9.410;2023-10-09T00:53:53;8.90;99.90
5870;DHT22;2961;47.702;9.410;2023-10-09T00:56:23;8.80;99.90
5870;DHT22;2961;47.702;9.410;2023-10-09T00:59:04;8.80;99.90
5870;DHT22;2961;47.702;9.410;2023-10-09T01:01:34;8.70;99.90
5870;DHT22;2961;47.702;9.410;2023-10-09T01:04:02;8.70;99.90
5870;DHT22;2961;47.702;9.410;2023-10-09T01:06:41;8.70;99.90
5870;DHT22;2961;47.702;9.410;2023-10-09T01:09:13;8.70;99.90
5870;DHT22;2961;47.702;9.410;2023-10-09T01:11:44;8.70;99.90
5870;DHT22;2961;47.702;9.410;2023-10-09T01:14:17;8.70;99.90
5870;DHT22;2961;47.702;9.410;2023-10-09T01:16:46;8.70;99.90
5870;DHT22;2961;47.702;9.410;2023-10-09T01:19:13;8.60;99.90
5870;DHT22;2961;47.702;9.410;2023-10-09T01:21:46;8.60;99.90
5870;DHT22;2961;47.702;9.410;2023-10-09T01:24:16;8.50;99.90
5870;DHT22;2961;47.702;9.410;2023-10-09T01:26:45;8.40;99.90
5870;DHT22;2961;47.702;9.410;2023-10-09T01:29:14;8.40;99.90
5870;DHT22;2961;47.702;9.410;2023-10-09T01:31:42;8.40;99.90
5870;DHT22;2961;47.702;9.410;2023-10-09T01:34:18;8.50;99.90
5870;DHT22;2961;47.702;9.410;2023-10-09T01:36:50;8.50;99.90
5870;DHT22;2961;47.702;9.410;2023-10-09T01:39:21;8.40;99.90
5870;DHT22;2961;47.702;9.410;2023-10-09T01:41:52;8.50;99.90
5870;DHT22;2961;47.702;9.410;2023-10-09T01:44:27;8.40;99.90
5870;DHT22;2961;47.702;9.410;2023-10-09T01:46:56;8.40;99.90
5870;DHT22;2961;47.702;9.410;2023-10-09T01:49:24;8.30;99.90
5870;DHT22;2961;47.702;9.410;2023-10-09T01:51:57;8.30;99.90
5870;DHT22;2961;47.702;9.410;2023-10-09T01:54:30;8.20;99.90
5870;DHT22;2961;47.702;9.410;2023-10-09T01:57:02;8.20;99.90
5870;DHT22;2961;47.702;9.410;2023-10-09T01:59:38;8.20;99.90
5870;DHT22;2961;47.702;9.410;2023-10-09T02:02:10;8.20;99.90
5870;DHT22;2961;47.702;9.410;2023-10-09T02:04:50;8.10;99.90
5870;DHT22;2961;47.702;9.410;2023-10-09T02:07:17;8.10;99.90
5870;DHT22;2961;47.702;9.410;2023-10-09T02:09:49;8.10;99.90
5870;DHT22;2961;47.702;9.410;2023-10-09T02:12:16;8.10;99.90
5870;DHT22;2961;47.702;9.410;2023-10-09T02:14:43;8.20;99.90
5870;DHT22;2961;47.702;9.410;2023-10-09T02:17:10;8.20;99.90
5870;DHT22;2961;47.702;9.410;2023-10-09T02:19:44;8.20;99.90
5870;DHT22;2961;47.702;9.410;2023-10-09T02:22:14;8.10;99.90
5870;DHT22;2961;47.702;9.410;2023-10-09T02:24:43;8.10;99.90
5870;DHT22;2961;47.702;9.410;2023-10-09T02:27:19;8.10;99.90
5870;DHT22;2961;47.702;9.410;2023-10-09T02:30:03;8.10;99.90
5870;DHT22;2961;47.702;9.410;2023-10-09T02:32:41;8.00;99.90
5870;DHT22;2961;47.702;9.410;2023-10-09T02:35:09;7.90;99.90
5870;DHT22;2961;47.702;9.410;2023-10-09T02:37:47;7.90;99.90
5870;DHT22;2961;47.702;9.410;2023-10-09T02:40:14;7.90;99.90
5870;DHT22;2961;47.702;9.410;2023-10-09T02:42:51;7.90;99.90
5870;DHT22;2961;47.702;9.410;2023-10-09T02:45:18;7.80;99.90
5870;DHT22;2961;47.702;9.410;2023-10-09T02:47:45;7.90;99.90
5870;DHT22;2961;47.702;9.410;2023-10-09T02:50:14;7.90;99.90
5870;DHT22;2961;47.702;9.410;2023-10-09T02:52:46;7.90;99.90
5870;DHT22;2961;47.702;9.410;2023-10-09T02:57:52;7.80;99.90
5870;DHT22;2961;47.702;9.410;2023-10-09T03:00:30;7.80;99.90
5870;DHT22;2961;47.702;9.410;2023-10-09T03:02:58;7.70;99.90
5870;DHT22;2961;47.702;9.410;2023-10-09T03:05:25;7.70;99.90
5870;DHT22;2961;47.702;9.410;2023-10-09T03:07:54;7.60;99.90
5870;DHT22;2961;47.702;9.410;2023-10-09T03:10:22;7.60;99.90
5870;DHT22;2961;47.702;9.410;2023-10-09T03:12:49;7.70;99.90
5870;DHT22;2961;47.702;9.410;2023-10-09T03:15:20;7.70;99.90
5870;DHT22;2961;47.702;9.410;2023-10-09T03:17:47;7.70;99.90
5870;DHT22;2961;47.702;9.410;2023-10-09T03:20:15;7.80;99.90
5870;DHT22;2961;47.702;9.410;2023-10-09T03:22:43;7.80;99.90
5870;DHT22;2961;47.702;9.410;2023-10-09T03:25:10;7.80;99.90
5870;DHT22;2961;47.702;9.410;2023-10-09T03:27:39;7.80;99.90
5870;DHT22;2961;47.702;9.410;2023-10-09T03:30:12;7.80;99.90
5870;DHT22;2961;47.702;9.410;2023-10-09T03:32:44;7.70;99.90
5870;DHT22;2961;47.702;9.410;2023-10-09T03:35:16;7.60;99.90
5870;DHT22;2961;47.702;9.410;2023-10-09T03:37:51;7.50;99.90
5870;DHT22;2961;47.702;9.410;2023-10-09T03:40:18;7.60;99.90
5870;DHT22;2961;47.702;9.410;2023-10-09T03:42:45;7.60;99.90
5870;DHT22;2961;47.702;9.410;2023-10-09T03:45:14;7.50;99.90
5870;DHT22;2961;47.702;9.410;2023-10-09T03:47:53;7.50;99.90
5870;DHT22;2961;47.702;9.410;2023-10-09T03:50:23;7.50;99.90
5870;DHT22;2961;47.702;9.410;2023-10-09T03:52:55;7.40;99.90
5870;DHT22;2961;47.702;9.410;2023-10-09T03:55:22;7.40;99.90
5870;DHT22;2961;47.702;9.410;2023-10-09T03:57:53;7.40;99.90
5870;DHT22;2961;47.702;9.410;2023-10-09T04:00:23;7.50;99.90
5870;DHT22;2961;47.702;9.410;2023-10-09T04:02:55;7.50;99.90
5870;DHT22;2961;47.702;9.410;2023-10-09T04:05:22;7.50;99.90
5870;DHT22;2961;47.702;9.410;2023-10-09T04:07:50;7.50;99.90
5870;DHT22;2961;47.702;9.410;2023-10-09T04:10:19;7.50;99.90
5870;DHT22;2961;47.702;9.410;2023-10-09T04:13:16;7.50;99.90
5870;DHT22;2961;47.702;9.410;2023-10-09T04:15:49;7.50;99.90
5870;DHT22;2961;47.702;9.410;2023-10-09T04:18:19;7.50;99.90
5870;DHT22;2961;47.702;9.410;2023-10-09T04:20:54;7.50;99.90
5870;DHT22;2961;47.702;9.410;2023-10-09T04:23:40;7.50;99.90
5870;DHT22;2961;47.702;9.410;2023-10-09T04:26:25;7.60;99.90
5870;DHT22;2961;47.702;9.410;2023-10-09T04:28:51;7.60;99.90
5870;DHT22;2961;47.702;9.410;2023-10-09T04:31:19;7.50;99.90
5870;DHT22;2961;47.702;9.410;2023-10-09T04:33:49;7.40;99.90
5870;DHT22;2961;47.702;9.410;2023-10-09T04:36:44;7.40;99.90
5870;DHT22;2961;47.702;9.410;2023-10-09T04:39:15;7.30;99.90
5870;DHT22;2961;47.702;9.410;2023-10-09T04:42:01;7.30;99.90
5870;DHT22;2961;47.702;9.410;2023-10-09T04:45:02;7.30;99.90
5870;DHT22;2961;47.702;9.410;2023-10-09T04:47:49;7.40;99.90
5870;DHT22;2961;47.702;9.410;2023-10-09T04:50:25;7.50;99.90
5870;DHT22;2961;47.702;9.410;2023-10-09T04:53:13;7.50;99.90
5870;DHT22;2961;47.702;9.410;2023-10-09T04:55:57;7.50;99.90
5870;DHT22;2961;47.702;9.410;2023-10-09T04:58:30;7.50;99.90
5870;DHT22;2961;47.702;9.410;2023-10-09T05:01:04;7.50;99.90
5870;DHT22;2961;47.702;9.410;2023-10-09T05:03:38;7.50;99.90
5870;DHT22;2961;47.702;9.410;2023-10-09T05:06:13;7.60;99.90
5870;DHT22;2961;47.702;9.410;2023-10-09T05:08:58;7.60;99.90
5870;DHT22;2961;47.702;9.410;2023-10-09T05:11:34;7.50;99.90
5870;DHT22;2961;47.702;9.410;2023-10-09T05:14:19;7.60;99.90
5870;DHT22;2961;47.702;9.410;2023-10-09T05:16:53;7.60;99.90
5870;DHT22;2961;47.702;9.410;2023-10-09T05:19:26;7.60;99.90
5870;DHT22;2961;47.702;9.410;2023-10-09T05:22:00;7.50;99.90
5870;DHT22;2961;47.702;9.410;2023-10-09T05:24:33;7.40;99.90
5870;DHT22;2961;47.702;9.410;2023-10-09T05:27:09;7.40;99.90
5870;DHT22;2961;47.702;9.410;2023-10-09T05:29:43;7.40;99.90
5870;DHT22;2961;47.702;9.410;2023-10-09T05:32:25;7.40;99.90
5870;DHT22;2961;47.702;9.410;2023-10-09T05:34:55;7.50;99.90
5870;DHT22;2961;47.702;9.410;2023-10-09T05:37:34;7.50;99.90
5870;DHT22;2961;47.702;9.410;2023-10-09T05:40:09;7.50;99.90
5870;DHT22;2961;47.702;9.410;2023-10-09T05:42:48;7.50;99.90
5870;DHT22;2961;47.702;9.410;2023-10-09T05:45:25;7.50;99.90
5870;DHT22;2961;47.702;9.410;2023-10-09T05:48:09;7.50;99.90
5870;DHT22;2961;47.702;9.410;2023-10-09T05:50:50;7.50;99.90
5870;DHT22;2961;47.702;9.410;2023-10-09T05:53:35;7.50;99.90
5870;DHT22;2961;47.702;9.410;2023-10-09T05:56:16;7.50;99.90
5870;DHT22;2961;47.702;9.410;2023-10-09T05:59:09;7.40;99.90
5870;DHT22;2961;47.702;9.410;2023-10-09T06:01:52;7.40;99.90
5870;DHT22;2961;47.702;9.410;2023-10-09T06:04:50;7.40;99.90
5870;DHT22;2961;47.702;9.410;2023-10-09T06:07:20;7.40;99.90
5870;DHT22;2961;47.702;9.410;2023-10-09T06:10:08;7.40;99.90
5870;DHT22;2961;47.702;9.410;2023-10-09T06:12:44;7.50;99.90
5870;DHT22;2961;47.702;9.410;2023-10-09T06:15:21;7.60;99.90
5870;DHT22;2961;47.702;9.410;2023-10-09T06:18:14;7.70;99.90
5870;DHT22;2961;47.702;9.410;2023-10-09T06:20:57;7.90;99.90
5870;DHT22;2961;47.702;9.410;2023-10-09T06:23:35;8.00;99.90
5870;DHT22;2961;47.702;9.410;2023-10-09T06:26:36;8.00;99.90
5870;DHT22;2961;47.702;9.410;2023-10-09T06:29:02;8.20;99.90
5870;DHT22;2961;47.702;9.410;2023-10-09T06:31:46;8.40;99.90
5870;DHT22;2961;47.702;9.410;2023-10-09T06:34:42;8.40;99.90
5870;DHT22;2961;47.702;9.410;2023-10-09T06:37:10;8.50;99.90
5870;DHT22;2961;47.702;9.410;2023-10-09T06:40:00;8.60;99.90
5870;DHT22;2961;47.702;9.410;2023-10-09T06:42:57;8.70;99.90
5870;DHT22;2961;47.702;9.410;2023-10-09T06:45:29;8.80;99.90
5870;DHT22;2961;47.702;9.410;2023-10-09T06:48:09;8.90;99.90
5870;DHT22;2961;47.702;9.410;2023-10-09T06:50:56;9.00;99.90
5870;DHT22;2961;47.702;9.410;2023-10-09T06:53:30;9.20;99.90
5870;DHT22;2961;47.702;9.410;2023-10-09T06:56:10;9.30;99.90
5870;DHT22;2961;47.702;9.410;2023-10-09T06:58:50;9.50;99.90
5870;DHT22;2961;47.702;9.410;2023-10-09T07:01:20;9.70;99.90
5870;DHT22;2961;47.702;9.410;2023-10-09T07:03:54;9.90;99.90
5870;DHT22;2961;47.702;9.410;2023-10-09T07:06:26;10.00;99.90
5870;DHT22;2961;47.702;9.410;2023-10-09T07:09:07;10.20;99.90
5870;DHT22;2961;47.702;9.410;2023-10-09T07:11:46;10.50;99.90
5870;DHT22;2961;47.702;9.410;2023-10-09T07:14:26;10.70;99.90
5870;DHT22;2961;47.702;9.410;2023-10-09T07:17:08;10.90;99.90
5870;DHT22;2961;47.702;9.410;2023-10-09T07:19:47;11.10;99.90
5870;DHT22;2961;47.702;9.410;2023-10-09T07:22:36;11.30;99.90
5870;DHT22;2961;47.702;9.410;2023-10-09T07:25:18;11.70;99.90
5870;DHT22;2961;47.702;9.410;2023-10-09T07:28:06;12.00;99.90
5870;DHT22;2961;47.702;9.410;2023-10-09T07:30:45;12.30;99.90
5870;DHT22;2961;47.702;9.410;2023-10-09T07:33:12;12.50;99.90
5870;DHT22;2961;47.702;9.410;2023-10-09T07:35:44;12.70;99.90
5870;DHT22;2961;47.702;9.410;2023-10-09T07:38:15;12.90;99.90
5870;DHT22;2961;47.702;9.410;2023-10-09T07:40:45;12.90;99.90
5870;DHT22;2961;47.702;9.410;2023-10-09T07:43:21;13.00;99.90
5870;DHT22;2961;47.702;9.410;2023-10-09T07:45:54;13.10;99.90
5870;DHT22;2961;47.702;9.410;2023-10-09T07:48:35;13.20;99.90
5870;DHT22;2961;47.702;9.410;2023-10-09T07:51:14;13.30;99.90
5870;DHT22;2961;47.702;9.410;2023-10-09T07:53:41;13.40;99.90
5870;DHT22;2961;47.702;9.410;2023-10-09T07:56:10;13.40;99.90
5870;DHT22;2961;47.702;9.410;2023-10-09T07:58:39;13.50;99.90
5870;DHT22;2961;47.702;9.410;2023-10-09T08:01:14;13.60;99.90
5870;DHT22;2961;47.702;9.410;2023-10-09T08:03:49;13.70;99.90
5870;DHT22;2961;47.702;9.410;2023-10-09T08:06:27;13.90;99.90
5870;DHT22;2961;47.702;9.410;2023-10-09T08:09:08;14.10;99.90
5870;DHT22;2961;47.702;9.410;2023-10-09T08:12:04;14.20;99.90
5870;DHT22;2961;47.702;9.410;2023-10-09T08:14:40;14.40;99.90
5870;DHT22;2961;47.702;9.410;2023-10-09T08:17:12;14.60;99.90
5870;DHT22;2961;47.702;9.410;2023-10-09T08:19:43;14.60;99.90
5870;DHT22;2961;47.702;9.410;2023-10-09T08:22:24;14.70;99.90
5870;DHT22;2961;47.702;9.410;2023-10-09T08:25:09;14.80;99.90
5870;DHT22;2961;47.702;9.410;2023-10-09T08:27:52;14.90;99.90
5870;DHT22;2961;47.702;9.410;2023-10-09T08:30:23;15.20;99.90
5870;DHT22;2961;47.702;9.410;2023-10-09T08:33:07;15.40;99.90
5870;DHT22;2961;47.702;9.410;2023-10-09T08:35:54;15.70;99.90
5870;DHT22;2961;47.702;9.410;2023-10-09T08:38:27;16.00;99.90
5870;DHT22;2961;47.702;9.410;2023-10-09T08:41:06;16.20;99.90
5870;DHT22;2961;47.702;9.410;2023-10-09T08:43:49;16.40;99.90
5870;DHT22;2961;47.702;9.410;2023-10-09T08:46:19;16.50;99.90
5870;DHT22;2961;47.702;9.410;2023-10-09T08:48:48;16.60;99.90
5870;DHT22;2961;47.702;9.410;2023-10-09T08:51:17;16.80;99.90
5870;DHT22;2961;47.702;9.410;2023-10-09T08:53:45;16.90;99.90
5870;DHT22;2961;47.702;9.410;2023-10-09T08:56:13;17.00;99.90
5870;DHT22;2961;47.702;9.410;2023-10-09T08:58:48;17.00;99.90
5870;DHT22;2961;47.702;9.410;2023-10-09T09:01:16;17.00;99.90
5870;DHT22;2961;47.702;9.410;2023-10-09T09:03:48;17.10;99.90
5870;DHT22;2961;47.702;9.410;2023-10-09T09:06:17;17.10;99.90
5870;DHT22;2961;47.702;9.410;2023-10-09T09:08:45;17.20;99.90
5870;DHT22;2961;47.702;9.410;2023-10-09T09:11:13;17.40;99.90
5870;DHT22;2961;47.702;9.410;2023-10-09T09:13:44;17.50;99.90
5870;DHT22;2961;47.702;9.410;2023-10-09T09:16:18;17.60;99.90
5870;DHT22;2961;47.702;9.410;2023-10-09T09:18:54;17.80;99.90
5870;DHT22;2961;47.702;9.410;2023-10-09T09:21:31;18.00;99.90
5870;DHT22;2961;47.702;9.410;2023-10-09T09:24:03;18.10;99.90
5870;DHT22;2961;47.702;9.410;2023-10-09T09:26:42;18.40;99.90
5870;DHT22;2961;47.702;9.410;2023-10-09T09:29:12;18.60;99.90
5870;DHT22;2961;47.702;9.410;2023-10-09T09:31:54;18.70;99.90
5870;DHT22;2961;47.702;9.410;2023-10-09T09:34:22;18.80;99.90
5870;DHT22;2961;47.702;9.410;2023-10-09T09:36:55;18.80;99.90
5870;DHT22;2961;47.702;9.410;2023-10-09T09:39:23;18.90;99.90
5870;DHT22;2961;47.702;9.410;2023-10-09T09:41:56;18.90;99.90
5870;DHT22;2961;47.702;9.410;2023-10-09T09:44:30;18.90;99.90
5870;DHT22;2961;47.702;9.410;2023-10-09T09:46:59;19.00;99.90
5870;DHT22;2961;47.702;9.410;2023-10-09T09:49:28;19.10;99.90
5870;DHT22;2961;47.702;9.410;2023-10-09T09:52:01;19.30;99.90
5870;DHT22;2961;47.702;9.410;2023-10-09T09:54:28;19.30;99.90
5870;DHT22;2961;47.702;9.410;2023-10-09T09:57:00;19.30;99.90
5870;DHT22;2961;47.702;9.410;2023-10-09T09:59:38;19.20;99.90
5870;DHT22;2961;47.702;9.410;2023-10-09T10:02:20;19.10;99.90
5870;DHT22;2961;47.702;9.410;2023-10-09T10:04:53;19.10;99.90
5870;DHT22;2961;47.702;9.410;2023-10-09T10:07:23;19.30;99.90
5870;DHT22;2961;47.702;9.410;2023-10-09T10:09:51;19.30;99.90
5870;DHT22;2961;47.702;9.410;2023-10-09T10:12:51;19.30;99.90
5870;DHT22;2961;47.702;9.410;2023-10-09T10:16:04;19.40;99.90
5870;DHT22;2961;47.702;9.410;2023-10-09T10:18:52;19.40;99.90
5870;DHT22;2961;47.702;9.410;2023-10-09T10:21:24;19.50;99.90
5870;DHT22;2961;47.702;9.410;2023-10-09T10:24:04;19.70;99.90
5870;DHT22;2961;47.702;9.410;2023-10-09T10:27:15;19.80;99.90
5870;DHT22;2961;47.702;9.410;2023-10-09T10:32:54;19.90;99.90
5870;DHT22;2961;47.702;9.410;2023-10-09T10:35:23;19.80;99.90
5870;DHT22;2961;47.702;9.410;2023-10-09T10:38:22;19.70;99.90
5870;DHT22;2961;47.702;9.410;2023-10-09T10:40:49;19.70;99.90
5870;DHT22;2961;47.702;9.410;2023-10-09T10:43:23;19.80;99.90
5870;DHT22;2961;47.702;9.410;2023-10-09T10:46:01;19.90;99.90
5870;DHT22;2961;47.702;9.410;2023-10-09T10:48:34;19.90;99.90
5870;DHT22;2961;47.702;9.410;2023-10-09T10:51:03;19.80;99.90
5870;DHT22;2961;47.702;9.410;2023-10-09T10:53:32;19.90;99.90
5870;DHT22;2961;47.702;9.410;2023-10-09T10:56:13;20.10;99.90
5870;DHT22;2961;47.702;9.410;2023-10-09T10:58:52;20.20;99.90
5870;DHT22;2961;47.702;9.410;2023-10-09T11:01:37;20.30;99.90
5870;DHT22;2961;47.702;9.410;2023-10-09T11:04:19;20.40;99.90
5870;DHT22;2961;47.702;9.410;2023-10-09T11:07:04;20.40;99.90
5870;DHT22;2961;47.702;9.410;2023-10-09T11:09:44;20.30;99.90
5870;DHT22;2961;47.702;9.410;2023-10-09T11:12:24;20.30;99.90
5870;DHT22;2961;47.702;9.410;2023-10-09T11:15:04;20.20;99.90
5870;DHT22;2961;47.702;9.410;2023-10-09T11:17:35;20.20;99.90
5870;DHT22;2961;47.702;9.410;2023-10-09T11:20:05;20.30;99.90
5870;DHT22;2961;47.702;9.410;2023-10-09T11:22:49;20.30;99.90
5870;DHT22;2961;47.702;9.410;2023-10-09T11:25:43;20.40;99.90
5870;DHT22;2961;47.702;9.410;2023-10-09T11:28:18;20.70;99.90
5870;DHT22;2961;47.702;9.410;2023-10-09T11:31:13;20.80;99.90
5870;DHT22;2961;47.702;9.410;2023-10-09T11:33:44;21.00;99.90
5870;DHT22;2961;47.702;9.410;2023-10-09T11:36:11;21.20;99.90
5870;DHT22;2961;47.702;9.410;2023-10-09T11:38:38;21.40;99.90
5870;DHT22;2961;47.702;9.410;2023-10-09T11:41:15;21.60;99.90
5870;DHT22;2961;47.702;9.410;2023-10-09T11:43:49;21.70;99.90
5870;DHT22;2961;47.702;9.410;2023-10-09T11:46:19;21.80;99.90
5870;DHT22;2961;47.702;9.410;2023-10-09T11:49:14;21.90;99.90
5870;DHT22;2961;47.702;9.410;2023-10-09T11:51:52;22.00;99.90
5870;DHT22;2961;47.702;9.410;2023-10-09T11:54:56;22.00;99.90
5870;DHT22;2961;47.702;9.410;2023-10-09T11:57:25;22.10;99.90
5870;DHT22;2961;47.702;9.410;2023-10-09T11:59:57;22.00;99.90
5870;DHT22;2961;47.702;9.410;2023-10-09T12:02:25;22.00;99.90
5870;DHT22;2961;47.702;9.410;2023-10-09T12:04:53;21.80;99.90
5870;DHT22;2961;47.702;9.410;2023-10-09T12:07:22;21.90;99.90
5870;DHT22;2961;47.702;9.410;2023-10-09T12:09:49;21.90;99.90
5870;DHT22;2961;47.702;9.410;2023-10-09T12:12:17;21.90;99.90
5870;DHT22;2961;47.702;9.410;2023-10-09T12:14:53;22.00;99.90
5870;DHT22;2961;47.702;9.410;2023-10-09T12:17:19;22.10;99.90
5870;DHT22;2961;47.702;9.410;2023-10-09T12:19:50;22.20;99.90
5870;DHT22;2961;47.702;9.410;2023-10-09T12:22:17;22.00;99.90
5870;DHT22;2961;47.702;9.410;2023-10-09T12:24:47;21.90;99.90
5870;DHT22;2961;47.702;9.410;2023-10-09T12:27:14;21.70;99.90
5870;DHT22;2961;47.702;9.410;2023-10-09T12:29:46;21.60;99.90
5870;DHT22;2961;47.702;9.410;2023-10-09T12:32:15;21.40;99.90
5870;DHT22;2961;47.702;9.410;2023-10-09T12:34:45;21.30;99.90
5870;DHT22;2961;47.702;9.410;2023-10-09T12:37:15;21.10;99.90
5870;DHT22;2961;47.702;9.410;2023-10-09T12:39:43;20.90;99.90
5870;DHT22;2961;47.702;9.410;2023-10-09T12:42:11;20.70;99.90
5870;DHT22;2961;47.702;9.410;2023-10-09T12:44:38;20.50;99.90
5870;DHT22;2961;47.702;9.410;2023-10-09T12:47:05;20.40;99.90
5870;DHT22;2961;47.702;9.410;2023-10-09T12:49:33;20.30;99.90
5870;DHT22;2961;47.702;9.410;2023-10-09T12:52:03;20.20;99.90
5870;DHT22;2961;47.702;9.410;2023-10-09T12:54:30;20.20;99.90
5870;DHT22;2961;47.702;9.410;2023-10-09T12:56:57;20.10;99.90
5870;DHT22;2961;47.702;9.410;2023-10-09T12:59:24;20.00;99.90
5870;DHT22;2961;47.702;9.410;2023-10-09T13:01:51;19.90;99.90
5870;DHT22;2961;47.702;9.410;2023-10-09T13:04:23;19.80;99.90
5870;DHT22;2961;47.702;9.410;2023-10-09T13:06:58;19.80;99.90
5870;DHT22;2961;47.702;9.410;2023-10-09T13:09:28;19.90;99.90
5870;DHT22;2961;47.702;9.410;2023-10-09T13:12:01;19.90;99.90
5870;DHT22;2961;47.702;9.410;2023-10-09T13:14:28;19.80;99.90
5870;DHT22;2961;47.702;9.410;2023-10-09T13:16:55;19.80;99.90
5870;DHT22;2961;47.702;9.410;2023-10-09T13:19:21;19.70;99.90
5870;DHT22;2961;47.702;9.410;2023-10-09T13:21:50;19.60;99.90
5870;DHT22;2961;47.702;9.410;2023-10-09T13:24:18;19.50;99.90
5870;DHT22;2961;47.702;9.410;2023-10-09T13:26:50;19.40;99.90
5870;DHT22;2961;47.702;9.410;2023-10-09T13:29:23;19.30;99.90
5870;DHT22;2961;47.702;9.410;2023-10-09T13:31:50;19.20;99.90
5870;DHT22;2961;47.702;9.410;2023-10-09T13:34:23;19.10;99.90
5870;DHT22;2961;47.702;9.410;2023-10-09T13:36:53;19.10;99.90
5870;DHT22;2961;47.702;9.410;2023-10-09T13:39:25;19.00;99.90
5870;DHT22;2961;47.702;9.410;2023-10-09T13:41:53;18.90;99.90
5870;DHT22;2961;47.702;9.410;2023-10-09T13:44:25;18.90;99.90
5870;DHT22;2961;47.702;9.410;2023-10-09T13:46:53;18.80;99.90
5870;DHT22;2961;47.702;9.410;2023-10-09T13:49:20;18.80;99.90
5870;DHT22;2961;47.702;9.410;2023-10-09T13:51:48;18.70;99.90
5870;DHT22;2961;47.702;9.410;2023-10-09T13:54:16;18.70;99.90
5870;DHT22;2961;47.702;9.410;2023-10-09T13:56:48;18.50;99.90
5870;DHT22;2961;47.702;9.410;2023-10-09T13:59:19;18.40;99.90
5870;DHT22;2961;47.702;9.410;2023-10-09T14:01:47;18.40;99.90
5870;DHT22;2961;47.702;9.410;2023-10-09T14:04:14;18.30;99.90
5870;DHT22;2961;47.702;9.410;2023-10-09T14:06:44;18.30;99.90
5870;DHT22;2961;47.702;9.410;2023-10-09T14:09:11;18.30;99.90
5870;DHT22;2961;47.702;9.410;2023-10-09T14:11:55;18.30;99.90
5870;DHT22;2961;47.702;9.410;2023-10-09T14:14:33;18.40;99.90
5870;DHT22;2961;47.702;9.410;2023-10-09T14:17:00;18.40;99.90
5870;DHT22;2961;47.702;9.410;2023-10-09T14:19:27;18.40;99.90
5870;DHT22;2961;47.702;9.410;2023-10-09T14:21:58;18.50;99.90
5870;DHT22;2961;47.702;9.410;2023-10-09T14:24:25;18.60;99.90
5870;DHT22;2961;47.702;9.410;2023-10-09T14:27:00;18.60;99.90
5870;DHT22;2961;47.702;9.410;2023-10-09T14:29:29;18.70;99.90
5870;DHT22;2961;47.702;9.410;2023-10-09T14:31:56;18.70;99.90
5870;DHT22;2961;47.702;9.410;2023-10-09T14:34:26;18.80;99.90
5870;DHT22;2961;47.702;9.410;2023-10-09T14:36:59;18.90;99.90
5870;DHT22;2961;47.702;9.410;2023-10-09T14:39:27;18.90;99.90
5870;DHT22;2961;47.702;9.410;2023-10-09T14:41:54;19.10;99.90
5870;DHT22;2961;47.702;9.410;2023-10-09T14:44:24;19.20;99.90
5870;DHT22;2961;47.702;9.410;2023-10-09T14:46:53;19.30;99.90
5870;DHT22;2961;47.702;9.410;2023-10-09T14:49:20;19.30;99.90
5870;DHT22;2961;47.702;9.410;2023-10-09T14:51:49;19.30;99.90
5870;DHT22;2961;47.702;9.410;2023-10-09T14:54:16;19.30;99.90
5870;DHT22;2961;47.702;9.410;2023-10-09T14:56:44;19.30;99.90
5870;DHT22;2961;47.702;9.410;2023-10-09T14:59:11;19.30;99.90
5870;DHT22;2961;47.702;9.410;2023-10-09T15:01:39;19.30;99.90
5870;DHT22;2961;47.702;9.410;2023-10-09T15:04:06;19.50;99.90
5870;DHT22;2961;47.702;9.410;2023-10-09T15:06:37;19.50;99.90
5870;DHT22;2961;47.702;9.410;2023-10-09T15:09:04;19.50;99.90
5870;DHT22;2961;47.702;9.410;2023-10-09T15:11:35;19.50;99.90
5870;DHT22;2961;47.702;9.410;2023-10-09T15:14:04;19.50;99.90
5870;DHT22;2961;47.702;9.410;2023-10-09T15:16:32;19.50;99.90
5870;DHT22;2961;47.702;9.410;2023-10-09T15:19:00;19.40;99.90
5870;DHT22;2961;47.702;9.410;2023-10-09T15:21:28;19.40;99.90
5870;DHT22;2961;47.702;9.410;2023-10-09T15:23:58;19.40;99.90
5870;DHT22;2961;47.702;9.410;2023-10-09T15:26:25;19.40;99.90
5870;DHT22;2961;47.702;9.410;2023-10-09T15:29:01;19.40;99.90
5870;DHT22;2961;47.702;9.410;2023-10-09T15:31:32;19.30;99.90
5870;DHT22;2961;47.702;9.410;2023-10-09T15:34:00;19.30;99.90
5870;DHT22;2961;47.702;9.410;2023-10-09T15:36:27;19.30;99.90
5870;DHT22;2961;47.702;9.410;2023-10-09T15:38:57;19.30;99.90
5870;DHT22;2961;47.702;9.410;2023-10-09T15:41:27;19.30;99.90
5870;DHT22;2961;47.702;9.410;2023-10-09T15:43:56;19.30;99.90
5870;DHT22;2961;47.702;9.410;2023-10-09T15:46:24;19.30;99.90
5870;DHT22;2961;47.702;9.410;2023-10-09T15:48:51;19.10;99.90
5870;DHT22;2961;47.702;9.410;2023-10-09T15:51:20;19.00;99.90
5870;DHT22;2961;47.702;9.410;2023-10-09T15:53:47;18.80;99.90
5870;DHT22;2961;47.702;9.410;2023-10-09T15:56:16;18.70;99.90
5870;DHT22;2961;47.702;9.410;2023-10-09T15:58:43;18.60;99.90
5870;DHT22;2961;47.702;9.410;2023-10-09T16:01:12;18.50;99.90
5870;DHT22;2961;47.702;9.410;2023-10-09T16:03:40;18.40;99.90
5870;DHT22;2961;47.702;9.410;2023-10-09T16:06:07;18.20;99.90
5870;DHT22;2961;47.702;9.410;2023-10-09T16:08:38;18.10;99.90
5870;DHT22;2961;47.702;9.410;2023-10-09T16:11:05;18.10;99.90
5870;DHT22;2961;47.702;9.410;2023-10-09T16:13:33;18.00;99.90
5870;DHT22;2961;47.702;9.410;2023-10-09T16:15:59;17.90;99.90
5870;DHT22;2961;47.702;9.410;2023-10-09T16:18:26;17.80;99.90
5870;DHT22;2961;47.702;9.410;2023-10-09T16:20:54;17.70;99.90
5870;DHT22;2961;47.702;9.410;2023-10-09T16:23:21;17.70;99.90
5870;DHT22;2961;47.702;9.410;2023-10-09T16:25:49;17.60;99.90
5870;DHT22;2961;47.702;9.410;2023-10-09T16:28:18;17.50;99.90
5870;DHT22;2961;47.702;9.410;2023-10-09T16:30:44;17.30;99.90
5870;DHT22;2961;47.702;9.410;2023-10-09T16:33:13;17.10;99.90
5870;DHT22;2961;47.702;9.410;2023-10-09T16:35:41;16.90;99.90
5870;DHT22;2961;47.702;9.410;2023-10-09T16:38:10;16.80;99.90
5870;DHT22;2961;47.702;9.410;2023-10-09T16:40:38;16.80;99.90
5870;DHT22;2961;47.702;9.410;2023-10-09T16:43:06;16.80;99.90
5870;DHT22;2961;47.702;9.410;2023-10-09T16:45:39;16.60;99.90
5870;DHT22;2961;47.702;9.410;2023-10-09T16:48:09;16.40;99.90
5870;DHT22;2961;47.702;9.410;2023-10-09T16:50:36;16.30;99.90
5870;DHT22;2961;47.702;9.410;2023-10-09T16:53:03;16.20;99.90